Time;durP1;ratioP1;P1;durP2;ratioP2;P2;SDS_P1;SDS_P2;PMS_P1;PMS_P2;Temp;Humidity;BMP_temperature;BMP_pressure;BME280_temperature;BME280_humidity;BME280_pressure;Samples;Min_cycle;Max_cycle;Signal;HPM_P1;HPM_P2
2022/08/20 00:01:52;;;;;;;23.73;21.43;;;22.30;1.00;;;;;;5028306;28;20461;-78
2022/08/20 00:04:19;;;;;;;24.20;21.90;;;22.40;1.00;;;;;;5030006;28;20923;-77
2022/08/20 00:06:47;;;;;;;25.20;22.87;;;22.40;1.00;;;;;;5027730;28;20481;-78
2022/08/20 00:09:14;;;;;;;24.50;22.20;;;22.30;1.00;;;;;;5030609;28;20480;-78
2022/08/20 00:11:42;;;;;;;25.60;23.00;;;22.30;1.00;;;;;;5030490;28;20422;-78
2022/08/20 00:14:09;;;;;;;25.13;22.57;;;22.20;1.00;;;;;;5026530;28;20552;-78
2022/08/20 00:16:37;;;;;;;22.43;20.30;;;22.10;1.00;;;;;;5027032;28;20468;-78
2022/08/20 00:19:07;;;;;;;23.70;21.50;;;22.10;1.00;;;;;;5025015;28;21476;-78
2022/08/20 00:21:34;;;;;;;22.37;20.17;;;22.00;1.00;;;;;;5029087;28;20459;-78
2022/08/20 00:24:01;;;;;;;23.10;20.87;;;21.90;1.00;;;;;;5028476;28;20481;-78
2022/08/20 00:26:28;;;;;;;23.20;20.80;;;21.90;1.00;;;;;;5027331;28;20527;-78
2022/08/20 00:28:56;;;;;;;23.43;21.27;;;21.90;1.00;;;;;;5026917;28;20461;-78
2022/08/20 00:31:24;;;;;;;22.13;20.17;;;21.90;1.00;;;;;;5028091;28;20474;-78
2022/08/20 00:33:52;;;;;;;21.57;19.47;;;21.90;1.00;;;;;;5024566;28;20477;-78
2022/08/20 00:36:20;;;;;;;22.63;20.40;;;21.90;1.00;;;;;;5027418;28;21329;-78
2022/08/20 00:38:47;;;;;;;23.30;21.00;;;21.90;1.00;;;;;;5023266;28;20456;-78
2022/08/20 00:41:17;;;;;;;24.80;22.20;;;21.80;1.00;;;;;;5027435;28;20540;-77
2022/08/20 00:43:47;;;;;;;24.10;21.67;;;21.80;1.00;;;;;;5024987;28;20532;-79
2022/08/20 00:46:19;;;;;;;27.60;24.80;;;21.80;1.00;;;;;;5024774;28;20461;-78
2022/08/20 00:48:47;;;;;;;26.57;23.87;;;21.70;1.00;;;;;;5023789;28;20464;-78
2022/08/20 00:51:22;;;;;;;26.60;23.90;;;21.80;1.00;;;;;;5026413;28;20485;-77
2022/08/20 00:53:49;;;;;;;26.47;23.87;;;21.80;1.00;;;;;;5026273;28;20475;-78
2022/08/20 00:56:16;;;;;;;27.83;25.00;;;21.80;1.00;;;;;;5023718;28;20799;-78
2022/08/20 00:58:45;;;;;;;28.40;25.50;;;21.70;1.00;;;;;;5024690;28;20464;-79
2022/08/20 01:01:13;;;;;;;28.47;25.60;;;21.60;1.00;;;;;;5025866;28;20457;-78
2022/08/20 01:03:41;;;;;;;27.57;24.77;;;21.60;1.00;;;;;;5026162;28;20513;-78
2022/08/20 01:06:10;;;;;;;25.90;23.43;;;21.50;1.00;;;;;;5027897;28;20425;-77
2022/08/20 01:08:38;;;;;;;26.43;23.83;;;21.50;1.00;;;;;;5026450;28;20468;-77
2022/08/20 01:11:11;;;;;;;29.37;26.27;;;21.50;1.00;;;;;;5023848;28;22125;-80
2022/08/20 01:13:39;;;;;;;27.53;24.67;;;21.50;1.00;;;;;;5026023;28;20922;-77
2022/08/20 01:16:18;;;;;;;28.80;25.90;;;21.40;1.00;;;;;;5030183;28;20481;-77
2022/08/20 01:18:47;;;;;;;26.13;23.60;;;21.30;1.00;;;;;;5025325;28;21026;-79
2022/08/20 01:21:21;;;;;;;29.50;26.60;;;21.20;1.00;;;;;;5025266;28;20869;-78
2022/08/20 01:23:55;;;;;;;30.23;27.13;;;21.20;1.00;;;;;;5026262;28;20481;-78
2022/08/20 01:26:27;;;;;;;27.73;24.93;;;21.20;1.00;;;;;;5024844;28;21231;-78
2022/08/20 01:28:58;;;;;;;26.50;23.90;;;21.20;1.00;;;;;;5023818;28;20485;-79
2022/08/20 01:31:27;;;;;;;27.97;25.17;;;21.10;1.00;;;;;;5027995;28;21002;-78
2022/08/20 01:33:56;;;;;;;29.07;26.07;;;21.10;1.00;;;;;;5025772;28;22587;-78
2022/08/20 01:36:29;;;;;;;26.70;24.10;;;21.00;1.00;;;;;;5025463;28;20457;-78
2022/08/20 01:38:57;;;;;;;26.33;23.73;;;21.00;1.00;;;;;;5022971;28;20472;-78
2022/08/20 01:41:37;;;;;;;27.00;24.20;;;20.90;1.00;;;;;;5022791;28;20470;-78
2022/08/20 01:44:04;;;;;;;25.83;23.03;;;20.90;1.00;;;;;;5020746;28;20464;-77
2022/08/20 01:46:35;;;;;;;28.20;25.53;;;20.90;1.00;;;;;;5026591;28;20418;-77
2022/08/20 01:49:10;;;;;;;27.43;24.80;;;20.90;1.00;;;;;;5026605;28;20627;-77
2022/08/20 01:51:37;;;;;;;26.97;24.37;;;20.90;1.00;;;;;;5027176;28;20918;-78
2022/08/20 01:54:05;;;;;;;27.00;24.30;;;20.80;1.00;;;;;;5024402;28;20929;-79
2022/08/20 01:56:34;;;;;;;27.63;25.03;;;20.70;1.00;;;;;;5028213;28;21057;-79
2022/08/20 01:59:05;;;;;;;28.03;25.43;;;20.70;1.00;;;;;;5024576;28;20449;-78
2022/08/20 02:01:34;;;;;;;27.77;24.87;;;20.70;1.00;;;;;;5027756;28;20513;-78
2022/08/20 02:04:04;;;;;;;27.17;24.63;;;20.70;1.00;;;;;;5028008;28;20562;-78
2022/08/20 02:06:34;;;;;;;28.93;26.10;;;20.70;1.00;;;;;;5029062;28;20469;-78
2022/08/20 02:09:03;;;;;;;26.20;23.60;;;20.70;1.00;;;;;;5026409;28;20468;-78
2022/08/20 02:11:32;;;;;;;26.13;23.53;;;20.70;1.00;;;;;;5027455;28;20556;-78
2022/08/20 02:14:04;;;;;;;27.83;25.13;;;20.70;1.00;;;;;;5028448;28;20457;-78
2022/08/20 02:16:35;;;;;;;25.50;23.07;;;20.70;1.00;;;;;;5026219;28;20436;-78
2022/08/20 02:19:08;;;;;;;24.17;21.90;;;20.70;1.00;;;;;;5023838;28;20437;-78
2022/08/20 02:21:38;;;;;;;20.60;18.60;;;20.70;1.00;;;;;;5028776;28;20421;-78
2022/08/20 02:24:06;;;;;;;21.97;19.90;;;20.70;1.00;;;;;;5023950;28;20477;-78
2022/08/20 02:26:36;;;;;;;20.87;18.90;;;20.70;1.00;;;;;;5025776;28;20453;-79
2022/08/20 02:29:07;;;;;;;19.47;17.60;;;20.70;1.00;;;;;;5023015;28;21107;-77
2022/08/20 02:31:35;;;;;;;17.63;15.93;;;20.60;1.00;;;;;;5027529;28;21045;-78
2022/08/20 02:34:02;;;;;;;16.97;15.37;;;20.60;1.00;;;;;;5025638;28;20485;-78
2022/08/20 02:36:29;;;;;;;16.10;14.67;;;20.60;1.00;;;;;;5025923;28;20989;-78
2022/08/20 02:38:56;;;;;;;15.67;14.17;;;20.50;1.00;;;;;;5025629;28;20849;-79
2022/08/20 02:41:23;;;;;;;15.13;13.73;;;20.50;1.00;;;;;;5026294;28;20461;-78
2022/08/20 02:43:51;;;;;;;14.90;13.60;;;20.50;1.00;;;;;;5022758;28;20492;-78
2022/08/20 02:46:19;;;;;;;15.60;14.00;;;20.40;1.00;;;;;;5028966;28;20436;-78
2022/08/20 02:48:46;;;;;;;15.80;14.23;;;20.40;1.00;;;;;;5025317;28;20477;-78
2022/08/20 02:51:13;;;;;;;15.17;13.87;;;20.40;1.00;;;;;;5025578;28;20914;-78
2022/08/20 02:53:42;;;;;;;15.20;13.80;;;20.30;1.00;;;;;;5023916;28;20935;-78
2022/08/20 02:56:10;;;;;;;18.40;16.60;;;20.30;1.00;;;;;;5025289;28;20914;-79
2022/08/20 02:58:39;;;;;;;18.43;16.70;;;20.30;1.00;;;;;;5025971;28;20467;-78
2022/08/20 03:01:10;;;;;;;17.67;15.97;;;20.30;1.00;;;;;;5027921;28;20833;-78
2022/08/20 03:03:39;;;;;;;19.20;17.40;;;20.30;1.00;;;;;;5027265;28;21763;-78
2022/08/20 03:06:07;;;;;;;18.17;16.50;;;20.30;1.00;;;;;;5024876;28;20472;-78
2022/08/20 03:08:35;;;;;;;17.87;16.27;;;20.40;1.00;;;;;;5027461;28;20458;-77
2022/08/20 03:11:02;;;;;;;19.10;17.30;;;20.40;1.00;;;;;;5024784;28;20421;-78
2022/08/20 03:13:29;;;;;;;18.40;16.67;;;20.40;1.00;;;;;;5027711;28;20480;-78
2022/08/20 03:15:57;;;;;;;18.40;14.73;;;20.40;1.00;;;;;;5028661;28;20469;-78
2022/08/20 03:18:27;;;;;;;18.27;16.67;;;20.40;1.00;;;;;;5023698;28;20552;-78
2022/08/20 03:20:55;;;;;;;19.40;17.70;;;20.40;1.00;;;;;;5024689;28;20461;-78
2022/08/20 03:23:22;;;;;;;17.30;15.63;;;20.40;1.00;;;;;;5028914;28;20560;-79
2022/08/20 03:25:49;;;;;;;19.60;17.70;;;20.40;1.00;;;;;;5032947;28;20631;-78
2022/08/20 03:28:17;;;;;;;18.67;16.97;;;20.40;1.00;;;;;;5031232;28;20459;-79
2022/08/20 03:30:44;;;;;;;19.70;18.00;;;20.40;1.00;;;;;;5030727;28;20463;-78
2022/08/20 03:33:11;;;;;;;18.97;17.17;;;20.40;1.00;;;;;;5030194;28;20467;-77
2022/08/20 03:35:38;;;;;;;18.10;16.50;;;20.40;1.00;;;;;;5030881;28;20512;-78
2022/08/20 03:38:12;;;;;;;19.10;17.30;;;20.40;1.00;;;;;;5028587;28;20461;-78
2022/08/20 03:40:39;;;;;;;19.23;17.33;;;20.40;1.00;;;;;;5029521;28;20461;-78
2022/08/20 03:43:08;;;;;;;20.77;18.87;;;20.40;1.00;;;;;;5027328;28;20852;-79
2022/08/20 03:45:36;;;;;;;21.57;19.57;;;20.50;1.00;;;;;;5030325;28;20450;-78
2022/08/20 03:48:06;;;;;;;22.50;20.30;;;20.50;1.00;;;;;;5027208;28;20464;-78
2022/08/20 03:50:33;;;;;;;20.97;19.00;;;20.50;1.00;;;;;;5030352;28;20417;-78
2022/08/20 03:53:01;;;;;;;23.57;21.37;;;20.60;1.00;;;;;;5031727;28;21167;-78
2022/08/20 03:55:31;;;;;;;22.73;20.43;;;20.60;1.00;;;;;;5025555;28;21337;-79
2022/08/20 03:58:02;;;;;;;22.53;20.30;;;20.60;1.00;;;;;;5028555;28;20489;-78
2022/08/20 04:00:32;;;;;;;24.80;22.30;;;20.50;1.00;;;;;;5025782;28;20895;-78
2022/08/20 04:02:59;;;;;;;23.80;21.47;;;20.50;1.00;;;;;;5023652;28;20437;-78
2022/08/20 04:05:26;;;;;;;24.57;22.17;;;20.50;1.00;;;;;;5024618;28;20549;-77
2022/08/20 04:07:53;;;;;;;25.10;22.63;;;20.50;1.00;;;;;;5025948;28;21272;-78
2022/08/20 04:10:20;;;;;;;24.60;22.17;;;20.50;1.00;;;;;;5026920;28;20845;-78
2022/08/20 04:12:48;;;;;;;26.87;24.17;;;20.50;1.00;;;;;;5024342;28;21040;-78
2022/08/20 04:15:17;;;;;;;26.57;23.87;;;20.50;1.00;;;;;;5025045;28;20497;-78
2022/08/20 04:17:47;;;;;;;25.20;22.70;;;20.60;1.00;;;;;;5024711;28;20478;-78
2022/08/20 04:20:17;;;;;;;25.47;23.17;;;20.60;1.00;;;;;;5008809;28;21012;-78
2022/08/20 04:22:46;;;;;;;29.07;26.27;;;20.50;1.00;;;;;;5029273;28;20473;-78
2022/08/20 04:25:13;;;;;;;28.63;25.73;;;20.60;1.00;;;;;;5029070;28;20509;-78
2022/08/20 04:27:41;;;;;;;27.73;25.17;;;20.60;1.00;;;;;;5028053;28;20496;-78
2022/08/20 04:30:13;;;;;;;27.00;24.40;;;20.50;1.00;;;;;;5029228;28;21047;-78
2022/08/20 04:32:40;;;;;;;27.60;25.00;;;20.50;1.00;;;;;;5029407;28;20477;-78
2022/08/20 04:35:10;;;;;;;26.57;23.93;;;20.50;1.00;;;;;;5029494;28;20526;-78
2022/08/20 04:37:38;;;;;;;28.33;25.63;;;20.60;1.00;;;;;;5030040;28;20425;-77
2022/08/20 04:42:51;;;;;;;25.87;23.37;;;20.60;1.00;;;;;;5027810;28;20968;-77
2022/08/20 04:45:20;;;;;;;27.77;24.97;;;20.60;1.00;;;;;;5027616;28;20465;-77
2022/08/20 04:47:48;;;;;;;27.47;24.77;;;20.70;1.00;;;;;;5027892;28;20471;-78
2022/08/20 04:50:16;;;;;;;28.93;26.13;;;20.70;1.00;;;;;;5023640;28;20467;-78
2022/08/20 04:52:43;;;;;;;28.30;25.60;;;20.70;1.00;;;;;;5027215;28;20489;-77
2022/08/20 04:55:11;;;;;;;26.87;24.07;;;20.70;1.00;;;;;;5029042;28;20428;-77
2022/08/20 04:57:37;;;;;;;26.60;24.10;;;20.60;1.00;;;;;;5025785;28;20505;-77
2022/08/20 05:00:09;;;;;;;27.63;25.00;;;20.60;1.00;;;;;;5023918;28;20458;-79
2022/08/20 05:02:37;;;;;;;28.77;25.90;;;20.60;1.00;;;;;;5027108;28;20499;-79
2022/08/20 05:05:07;;;;;;;28.10;25.30;;;20.60;1.00;;;;;;5025247;28;20453;-78
2022/08/20 05:07:39;;;;;;;29.07;26.27;;;20.60;1.00;;;;;;5026832;28;20842;-76
2022/08/20 05:10:08;;;;;;;27.60;24.93;;;20.60;1.00;;;;;;5026238;28;20445;-78
2022/08/20 05:12:35;;;;;;;27.00;24.50;;;20.70;1.00;;;;;;5028924;28;20500;-77
2022/08/20 05:15:03;;;;;;;27.53;24.73;;;20.80;1.00;;;;;;5027084;28;20887;-78
2022/08/20 05:17:30;;;;;;;27.00;24.30;;;20.80;1.00;;;;;;5026453;28;20994;-78
2022/08/20 05:19:59;;;;;;;29.97;27.03;;;20.80;1.00;;;;;;5026510;28;20641;-78
2022/08/20 05:22:26;;;;;;;27.40;24.90;;;20.80;1.00;;;;;;5030153;28;20477;-77
2022/08/20 05:24:55;;;;;;;27.13;24.53;;;20.90;1.00;;;;;;5029710;28;20433;-78
2022/08/20 05:27:25;;;;;;;26.67;24.27;;;21.00;1.00;;;;;;5027606;28;20913;-78
2022/08/20 05:29:54;;;;;;;26.77;24.17;;;21.00;1.00;;;;;;5028668;28;20605;-78
2022/08/20 05:32:21;;;;;;;26.03;23.53;;;21.10;1.00;;;;;;5029064;28;20993;-78
2022/08/20 05:34:48;;;;;;;25.03;22.73;;;21.20;1.00;;;;;;5025489;28;20484;-78
2022/08/20 05:37:16;;;;;;;28.47;25.77;;;21.30;1.00;;;;;;5026656;28;21081;-78
2022/08/20 05:39:43;;;;;;;27.07;24.50;;;21.40;1.00;;;;;;5027610;28;20464;-80
2022/08/20 05:42:11;;;;;;;25.90;23.50;;;21.40;1.00;;;;;;5024864;28;20485;-77
2022/08/20 05:44:37;;;;;;;25.07;22.63;;;21.50;1.00;;;;;;5026197;28;21134;-78
2022/08/20 05:47:08;;;;;;;27.60;24.80;;;21.50;1.00;;;;;;5026172;28;20469;-78
2022/08/20 05:49:34;;;;;;;27.87;25.17;;;21.60;1.00;;;;;;5029743;28;20428;-77
2022/08/20 05:52:01;;;;;;;26.23;23.93;;;21.80;1.00;;;;;;5025958;28;20575;-78
2022/08/20 05:54:29;;;;;;;26.40;23.83;;;21.80;1.00;;;;;;5025249;28;20910;-78
2022/08/20 05:56:56;;;;;;;26.43;24.03;;;21.90;1.00;;;;;;5023793;28;20500;-79
2022/08/20 05:59:24;;;;;;;26.03;23.53;;;22.00;1.00;;;;;;5024667;28;20459;-78
2022/08/20 06:01:52;;;;;;;26.73;24.00;;;22.20;1.00;;;;;;5025954;28;20552;-78
2022/08/20 06:04:25;;;;;;;26.97;24.20;;;22.10;1.00;;;;;;5028080;28;20461;-78
2022/08/20 06:06:54;;;;;;;25.93;23.40;;;22.20;1.00;;;;;;5028713;28;20457;-78
2022/08/20 06:09:23;;;;;;;26.23;23.63;;;22.30;1.00;;;;;;5028226;28;20505;-78
2022/08/20 06:11:52;;;;;;;24.73;22.53;;;22.30;1.00;;;;;;5023316;28;20515;-78
2022/08/20 06:14:19;;;;;;;25.10;22.80;;;22.20;1.00;;;;;;5024103;28;20837;-78
2022/08/20 06:16:46;;;;;;;26.23;23.73;;;22.20;1.00;;;;;;5024286;28;20425;-78
2022/08/20 06:19:14;;;;;;;25.93;23.43;;;22.20;1.00;;;;;;5025144;28;20461;-78
2022/08/20 06:21:42;;;;;;;30.77;27.97;;;22.10;1.00;;;;;;5019345;28;20520;-79
2022/08/20 06:24:09;;;;;;;26.17;23.80;;;22.00;1.00;;;;;;5023415;28;20461;-78
2022/08/20 06:26:36;;;;;;;25.43;23.10;;;22.00;1.00;;;;;;5023810;28;20471;-79
2022/08/20 06:29:06;;;;;;;26.10;23.57;;;22.00;1.00;;;;;;5018670;28;20535;-78
2022/08/20 06:31:33;;;;;;;28.00;25.20;;;22.00;1.00;;;;;;5026472;28;20901;-78
2022/08/20 06:34:01;;;;;;;25.80;23.20;;;22.00;1.00;;;;;;5026745;28;20544;-78
2022/08/20 06:36:28;;;;;;;25.20;22.80;;;21.90;1.00;;;;;;5028675;28;21282;-78
2022/08/20 06:38:57;;;;;;;26.00;23.60;;;21.90;1.00;;;;;;5026388;28;20484;-78
2022/08/20 06:41:24;;;;;;;23.93;21.73;;;21.80;1.00;;;;;;5022675;28;20513;-79
2022/08/20 06:43:52;;;;;;;25.67;23.37;;;21.90;1.00;;;;;;5021121;28;20957;-79
2022/08/20 06:46:22;;;;;;;24.40;22.20;;;21.80;1.00;;;;;;5028728;28;20551;-78
2022/08/20 06:48:50;;;;;;;26.20;23.63;;;21.80;1.00;;;;;;5025994;28;20514;-78
2022/08/20 06:51:17;;;;;;;27.77;25.00;;;21.80;1.00;;;;;;5026315;28;20485;-77
2022/08/20 06:53:44;;;;;;;28.60;25.90;;;21.80;1.00;;;;;;5025845;28;20464;-77
2022/08/20 06:56:11;;;;;;;37.97;34.53;;;21.70;1.00;;;;;;5020858;28;20452;-77
2022/08/20 06:58:38;;;;;;;26.83;24.23;;;21.70;1.00;;;;;;5029728;28;20473;-77
2022/08/20 07:01:06;;;;;;;27.43;24.83;;;21.70;1.00;;;;;;5025055;28;20437;-77
2022/08/20 07:03:35;;;;;;;29.27;26.27;;;21.60;1.00;;;;;;5032947;28;20540;-78
2022/08/20 07:06:02;;;;;;;28.90;26.10;;;21.80;1.00;;;;;;5022808;28;20523;-78
2022/08/20 07:08:29;;;;;;;27.37;24.50;;;21.80;1.00;;;;;;5030415;28;20610;-80
2022/08/20 07:10:56;;;;;;;29.97;27.10;;;21.80;1.00;;;;;;5027564;28;24410;-77
2022/08/20 07:13:23;;;;;;;30.17;27.37;;;21.90;1.00;;;;;;5029289;28;21324;-78
2022/08/20 07:15:50;;;;;;;29.97;27.07;;;21.90;1.00;;;;;;5030740;28;20489;-78
2022/08/20 07:18:17;;;;;;;29.83;27.10;;;21.90;1.00;;;;;;5027165;28;20470;-78
2022/08/20 07:20:45;;;;;;;29.50;26.73;;;22.00;1.00;;;;;;5026847;28;20479;-78
2022/08/20 07:23:13;;;;;;;29.07;26.27;;;22.10;1.00;;;;;;5026949;28;20489;-78
2022/08/20 07:25:41;;;;;;;27.90;25.30;;;22.10;1.00;;;;;;5030624;28;20504;-78
2022/08/20 07:28:14;;;;;;;28.23;25.63;;;22.10;1.00;;;;;;5030127;28;20531;-79
2022/08/20 07:33:27;;;;;;;29.23;26.30;;;22.20;1.00;;;;;;5032979;28;20433;-86
2022/08/20 07:35:57;;;;;;;30.33;27.23;;;22.20;1.00;;;;;;5030537;28;20453;-84
2022/08/20 07:38:26;;;;;;;27.67;25.10;;;22.20;1.00;;;;;;5031580;28;21214;-80
2022/08/20 07:40:55;;;;;;;30.57;27.67;;;22.20;1.00;;;;;;5029346;28;20564;-80
2022/08/20 07:43:23;;;;;;;30.47;27.57;;;22.10;1.00;;;;;;5029100;28;20882;-86
2022/08/20 07:45:50;;;;;;;29.77;26.90;;;22.00;1.00;;;;;;5030222;28;20476;-80
2022/08/20 07:48:17;;;;;;;30.80;27.83;;;22.00;1.00;;;;;;5027075;28;20465;-80
2022/08/20 07:50:44;;;;;;;32.90;29.60;;;22.00;1.00;;;;;;5030652;28;21295;-79
2022/08/20 07:53:12;;;;;;;32.07;28.97;;;22.00;1.00;;;;;;5027449;28;20457;-78
2022/08/20 07:55:40;;;;;;;32.97;29.57;;;22.00;1.00;;;;;;5029107;28;20473;-81
2022/08/20 07:58:09;;;;;;;34.30;30.90;;;22.00;1.00;;;;;;5025270;28;20554;-83
2022/08/20 08:00:36;;;;;;;31.83;28.53;;;21.90;1.00;;;;;;5029612;28;20485;-78
2022/08/20 08:03:04;;;;;;;32.63;29.50;;;22.00;1.00;;;;;;5027988;28;20465;-78
2022/08/20 08:05:33;;;;;;;32.33;29.23;;;22.00;1.00;;;;;;5032666;28;20454;-79
2022/08/20 08:08:01;;;;;;;29.93;26.90;;;21.90;1.00;;;;;;5036152;28;20480;-80
2022/08/20 08:10:30;;;;;;;30.50;26.47;;;21.90;1.00;;;;;;5027672;28;20461;-79
2022/08/20 08:13:03;;;;;;;33.63;30.00;;;21.90;1.00;;;;;;5033468;28;20464;-81
2022/08/20 08:15:34;;;;;;;32.47;29.27;;;22.00;1.00;;;;;;5032199;28;20454;-80
2022/08/20 08:18:06;;;;;;;32.37;29.27;;;22.00;1.00;;;;;;5026827;28;20543;-80
2022/08/20 08:20:35;;;;;;;33.03;29.70;;;22.00;1.00;;;;;;5032336;28;20476;-80
2022/08/20 08:23:02;;;;;;;31.70;28.80;;;22.10;1.00;;;;;;5031402;28;20458;-80
2022/08/20 08:25:31;;;;;;;33.47;30.00;;;22.10;1.00;;;;;;5029297;28;20463;-80
2022/08/20 08:27:59;;;;;;;32.83;29.53;;;22.10;1.00;;;;;;5036235;28;20466;-82
2022/08/20 08:30:28;;;;;;;30.77;27.73;;;22.20;1.00;;;;;;5038591;28;20980;-83
2022/08/20 08:35:41;;;;;;;34.33;30.83;;;22.20;1.00;;;;;;5034949;28;20544;-82
2022/08/20 08:38:08;;;;;;;30.73;27.67;;;22.20;1.00;;;;;;5034372;28;20916;-84
2022/08/20 08:40:36;;;;;;;31.87;28.83;;;22.20;1.00;;;;;;5037570;28;20437;-82
2022/08/20 08:43:04;;;;;;;32.37;29.00;;;22.30;1.00;;;;;;5031407;28;20495;-81
2022/08/20 08:45:40;;;;;;;33.40;29.83;;;22.40;1.00;;;;;;5033512;28;20488;-84
2022/08/20 08:48:07;;;;;;;32.77;29.60;;;22.50;1.00;;;;;;5033501;28;20501;-84
2022/08/20 08:50:36;;;;;;;32.17;29.07;;;22.50;1.00;;;;;;5032156;28;20473;-82
2022/08/20 08:53:04;;;;;;;31.70;28.60;;;22.60;1.00;;;;;;5030894;28;20473;-82
2022/08/20 08:55:32;;;;;;;32.90;29.60;;;22.70;1.00;;;;;;5018426;28;21106;-80
2022/08/20 08:58:18;;;;;;;33.87;30.40;;;22.70;1.00;;;;;;5029853;28;20426;-80
2022/08/20 09:00:49;;;;;;;29.43;26.47;;;22.80;1.00;;;;;;5031348;28;20895;-80
2022/08/20 09:03:29;;;;;;;30.50;27.63;;;22.90;1.00;;;;;;5028741;28;20458;-81
2022/08/20 09:06:07;;;;;;;31.40;28.00;;;23.00;1.00;;;;;;5033462;28;21089;-82
2022/08/20 09:08:40;;;;;;;29.77;26.97;;;23.00;1.00;;;;;;5040822;28;20496;-80
2022/08/20 09:11:08;;;;;;;35.10;31.80;;;23.10;1.00;;;;;;5028786;28;20466;-80
2022/08/20 09:13:53;;;;;;;28.77;25.97;;;23.10;1.00;;;;;;5030496;28;20437;-85
2022/08/20 09:16:23;;;;;;;33.70;29.27;;;23.10;1.00;;;;;;5024169;28;20549;-81
2022/08/20 09:18:55;;;;;;;30.20;27.30;;;23.20;1.00;;;;;;5042624;28;20493;-81
2022/08/20 09:21:22;;;;;;;32.13;29.10;;;23.20;1.00;;;;;;5036571;28;20445;-81
2022/08/20 09:23:49;;;;;;;33.97;30.53;;;23.30;1.00;;;;;;5032965;28;20456;-80
2022/08/20 09:26:16;;;;;;;32.00;28.73;;;23.30;1.00;;;;;;5026941;28;20548;-80
2022/08/20 09:28:43;;;;;;;31.47;28.30;;;23.40;1.00;;;;;;5028026;28;20839;-78
2022/08/20 09:31:11;;;;;;;32.27;28.87;;;23.50;1.00;;;;;;5030033;28;20992;-81
2022/08/20 09:33:38;;;;;;;32.63;29.47;;;23.70;1.00;;;;;;5031271;28;20459;-80
2022/08/20 09:36:05;;;;;;;29.77;26.97;;;23.80;1.00;;;;;;5031932;28;20461;-80
2022/08/20 09:38:32;;;;;;;30.20;27.30;;;23.90;1.00;;;;;;5034321;28;20543;-80
2022/08/20 09:41:01;;;;;;;31.20;28.20;;;23.90;1.00;;;;;;5032151;28;21055;-80
2022/08/20 09:43:28;;;;;;;29.93;27.03;;;23.90;1.00;;;;;;5032338;28;20461;-80
2022/08/20 09:45:55;;;;;;;29.53;26.60;;;23.80;1.00;;;;;;5033563;28;20483;-81
2022/08/20 09:48:23;;;;;;;32.40;29.10;;;23.80;1.00;;;;;;5027163;28;20466;-79
2022/08/20 09:50:50;;;;;;;34.60;29.40;;;23.90;1.00;;;;;;5028074;28;20508;-78
2022/08/20 09:53:19;;;;;;;31.00;28.00;;;23.90;1.00;;;;;;5035861;28;20965;-79
2022/08/20 09:55:50;;;;;;;30.80;27.53;;;23.90;1.00;;;;;;5030822;28;20474;-79
2022/08/20 09:58:22;;;;;;;30.70;27.70;;;23.90;1.00;;;;;;5031673;28;20463;-79
2022/08/20 10:00:48;;;;;;;31.03;28.00;;;24.10;1.00;;;;;;5029527;28;20469;-79
2022/08/20 10:03:16;;;;;;;31.10;28.00;;;24.10;1.00;;;;;;5033406;28;20460;-79
2022/08/20 10:05:44;;;;;;;29.87;26.90;;;24.20;1.00;;;;;;5030821;28;20514;-79
2022/08/20 10:08:13;;;;;;;31.73;28.50;;;24.20;1.00;;;;;;5031937;28;20547;-79
2022/08/20 10:10:40;;;;;;;30.20;27.30;;;24.20;1.00;;;;;;5030986;28;20507;-79
2022/08/20 10:13:07;;;;;;;29.50;26.70;;;24.20;1.00;;;;;;5037179;28;20428;-79
2022/08/20 10:15:34;;;;;;;31.70;28.50;;;24.10;1.00;;;;;;5029657;28;20492;-78
2022/08/20 10:18:04;;;;;;;30.70;27.50;;;24.00;1.00;;;;;;5029673;28;20541;-80
2022/08/20 10:20:34;;;;;;;30.43;27.43;;;24.00;1.00;;;;;;5030277;28;21079;-79
2022/08/20 10:23:03;;;;;;;29.23;26.20;;;24.00;1.00;;;;;;5031203;28;20468;-79
2022/08/20 10:25:30;;;;;;;30.27;27.37;;;24.10;1.00;;;;;;5031536;28;20449;-80
2022/08/20 10:27:57;;;;;;;31.10;28.20;;;24.20;1.00;;;;;;5034175;28;20520;-80
2022/08/20 10:30:26;;;;;;;30.33;27.13;;;24.30;1.00;;;;;;5033094;28;20976;-80
2022/08/20 10:32:53;;;;;;;27.53;24.93;;;24.40;1.00;;;;;;5030072;28;20837;-80
2022/08/20 10:35:20;;;;;;;29.27;26.50;;;24.40;1.00;;;;;;5030296;28;20475;-80
2022/08/20 10:37:49;;;;;;;28.47;25.77;;;24.40;1.00;;;;;;5030287;28;20461;-80
2022/08/20 10:40:18;;;;;;;26.40;23.90;;;24.30;1.00;;;;;;5033712;28;20472;-81
2022/08/20 10:42:45;;;;;;;26.23;23.70;;;24.40;1.00;;;;;;5030685;28;20449;-80
2022/08/20 10:45:13;;;;;;;25.00;22.70;;;24.60;1.00;;;;;;5031331;28;20453;-80
2022/08/20 10:47:41;;;;;;;24.57;22.23;;;24.70;1.00;;;;;;5028261;28;20469;-80
2022/08/20 10:50:14;;;;;;;22.80;20.60;;;24.60;1.00;;;;;;5030612;28;20551;-78
2022/08/20 10:52:41;;;;;;;22.53;20.33;;;24.60;1.00;;;;;;5032639;28;20476;-80
2022/08/20 10:55:09;;;;;;;21.73;19.70;;;24.80;1.00;;;;;;5030974;28;20907;-79
2022/08/20 10:57:40;;;;;;;21.63;18.47;;;24.90;1.00;;;;;;5028598;28;20469;-80
2022/08/20 11:00:09;;;;;;;19.03;17.00;;;25.10;1.00;;;;;;5030675;28;20548;-79
2022/08/20 11:02:36;;;;;;;17.73;16.03;;;25.10;1.00;;;;;;5030279;28;20497;-79
2022/08/20 11:05:04;;;;;;;15.63;14.03;;;25.20;1.00;;;;;;5028522;28;20507;-79
2022/08/20 11:07:35;;;;;;;15.43;13.83;;;25.40;1.00;;;;;;5028868;28;21318;-80
2022/08/20 11:10:02;;;;;;;13.87;12.57;;;25.60;1.00;;;;;;5028377;28;20495;-80
2022/08/20 11:12:43;;;;;;;16.07;13.10;;;25.90;1.00;;;;;;5029242;28;20488;-80
2022/08/20 11:15:12;;;;;;;15.93;14.33;;;26.00;1.00;;;;;;5023893;28;20446;-80
2022/08/20 11:17:41;;;;;;;16.13;14.57;;;26.10;1.00;;;;;;5024716;28;21383;-81
2022/08/20 11:20:10;;;;;;;16.17;14.57;;;26.00;1.00;;;;;;5028556;28;20457;-81
2022/08/20 11:22:38;;;;;;;18.40;16.60;;;25.90;1.00;;;;;;5028127;28;23360;-81
2022/08/20 11:25:08;;;;;;;15.73;14.23;;;25.80;1.00;;;;;;5026281;28;20465;-81
2022/08/20 11:27:38;;;;;;;17.63;15.90;;;25.60;1.00;;;;;;5031897;28;20845;-81
2022/08/20 11:30:08;;;;;;;16.83;15.17;;;25.30;1.00;;;;;;5027998;28;20460;-81
2022/08/20 11:32:37;;;;;;;16.53;14.83;;;25.10;1.00;;;;;;5032530;28;20461;-80
2022/08/20 11:35:12;;;;;;;16.20;14.50;;;24.90;1.00;;;;;;5028482;28;20425;-81
2022/08/20 11:37:40;;;;;;;15.20;13.60;;;24.60;1.00;;;;;;5038523;28;20488;-80
2022/08/20 11:40:11;;;;;;;14.13;12.83;;;24.50;1.00;;;;;;5025787;28;20524;-80
2022/08/20 11:42:38;;;;;;;15.47;13.20;;;24.60;1.00;;;;;;5032344;28;20512;-80
2022/08/20 11:45:07;;;;;;;14.03;12.53;;;24.50;1.00;;;;;;5033858;28;20844;-81
2022/08/20 11:47:36;;;;;;;12.33;11.07;;;24.50;1.00;;;;;;5029669;28;20417;-82
2022/08/20 11:50:08;;;;;;;11.47;10.27;;;24.60;1.00;;;;;;5035725;28;20487;-81
2022/08/20 11:52:37;;;;;;;10.70;9.60;;;24.60;1.00;;;;;;5031891;28;21292;-81
2022/08/20 11:55:10;;;;;;;12.23;9.73;;;24.70;1.00;;;;;;5034249;28;20548;-81
2022/08/20 11:57:41;;;;;;;12.13;11.00;;;24.70;1.00;;;;;;5037634;28;20472;-81
2022/08/20 12:00:12;;;;;;;11.63;10.03;;;24.80;1.00;;;;;;5034942;28;20544;-81
2022/08/20 12:02:39;;;;;;;12.03;10.83;;;24.80;1.00;;;;;;5040172;28;20484;-80
2022/08/20 12:05:16;;;;;;;10.37;9.37;;;24.80;1.00;;;;;;5040027;28;20449;-81
2022/08/20 12:07:44;;;;;;;10.97;9.33;;;24.90;1.00;;;;;;5035094;28;20516;-80
2022/08/20 12:10:12;;;;;;;16.60;9.80;;;25.00;1.00;;;;;;5037879;28;20517;-80
2022/08/20 12:12:39;;;;;;;10.03;9.03;;;24.90;1.00;;;;;;5035883;28;20492;-82
2022/08/20 12:15:08;;;;;;;10.17;9.17;;;24.80;1.00;;;;;;5032939;28;20892;-81
2022/08/20 12:17:36;;;;;;;9.60;8.60;;;24.80;1.00;;;;;;5032882;28;20484;-80
2022/08/20 12:20:13;;;;;;;10.47;9.37;;;24.90;1.00;;;;;;5036300;28;20503;-80
2022/08/20 12:22:41;;;;;;;10.37;9.30;;;25.00;1.00;;;;;;5039163;28;20425;-81
2022/08/20 12:25:09;;;;;;;9.70;8.70;;;25.00;1.00;;;;;;5033956;28;20465;-80
2022/08/20 12:27:37;;;;;;;22.77;20.43;;;25.00;1.00;;;;;;5032655;28;20462;-81
2022/08/20 12:30:08;;;;;;;10.70;9.60;;;25.00;1.00;;;;;;5031552;28;20575;-80
2022/08/20 12:32:39;;;;;;;12.23;9.70;;;25.10;1.00;;;;;;5034940;28;20459;-78
2022/08/20 12:35:08;;;;;;;10.57;9.47;;;25.10;1.00;;;;;;5025702;28;20489;-80
2022/08/20 12:37:38;;;;;;;11.13;10.03;;;24.90;1.00;;;;;;5041936;28;20460;-79
2022/08/20 12:40:09;;;;;;;10.93;9.83;;;24.90;1.00;;;;;;5030094;28;21129;-80
2022/08/20 12:42:37;;;;;;;9.83;8.77;;;24.80;1.00;;;;;;5033279;28;20477;-79
2022/08/20 12:45:06;;;;;;;12.63;11.33;;;24.70;1.00;;;;;;5029815;28;21158;-80
2022/08/20 12:47:36;;;;;;;12.73;11.10;;;24.60;1.00;;;;;;5028449;28;20817;-79
2022/08/20 12:50:08;;;;;;;11.40;10.30;;;24.50;1.00;;;;;;5031862;28;20544;-81
2022/08/20 12:52:38;;;;;;;12.40;11.10;;;24.40;1.00;;;;;;5031292;28;20540;-81
2022/08/20 12:55:06;;;;;;;11.27;10.10;;;24.20;1.00;;;;;;5030176;28;20489;-78